Portada
METAR-TAF:

METAR-TAF

Aeroports :

Hallock Municipal Airport

Hallock, Minnesota, Estats Units d'Amèrica

latitud: 48-45-10N, longitud: 096-56-35W, altitud: 250 m

Observació

L'informe es va fer fa 24 minuts, a les 05:15 UTC
Vent 7 kt del Nord-Oest
Temperatura -21°C
Humitat 70%
Pressió 1022 hPa
Visibilitat: 16.1 km
Cel clar

METAR: KHCO 110515Z AUTO 32007KT 10SM CLR M21/M25 A3018 RMK AO2

Hora: 23:39 (05:39 UTC)


TAF: manca

Observacions i pronòstics meteorològics de més de 4000 aeroports (METAR i TAF).

Les estacions disponibles són els punts grocs i vermells al mapa.

Posi el ratolí al punt desitjat per veure el nom de l'estació.

Feu clic per veure les observacions i els pronòstics meteorològics.

Per canviar el mapa: feu clic els botons verds amb una creu de color negre per apropar; al botó verd amb un guió per allunyar la imatge; o en les fletxes verdes per a mapes adjacents.


METAR-TAF: